Time;durP1;ratioP1;P1;durP2;ratioP2;P2;SDS_P1;SDS_P2;PMS_P1;PMS_P2;Temp;Humidity;BMP_temperature;BMP_pressure;BME280_temperature;BME280_humidity;BME280_pressure;Samples;Min_cycle;Max_cycle;Signal;HPM_P1;HPM_P2
2022/12/13 00:01:58;;;;;;;10.82;6.07;;;;;;;-3.13;87.61;98425.22;5047622;28;20037;-64
2022/12/13 00:04:43;;;;;;;8.32;5.80;;;;;;;-3.13;88.07;98427.78;5050376;28;20556;-64
2022/12/13 00:07:28;;;;;;;11.02;6.05;;;;;;;-3.19;87.51;98425.31;5039325;28;20143;-63
2022/12/13 00:10:12;;;;;;;9.85;5.93;;;;;;;-3.14;86.04;98428.66;5077587;28;20052;-63
2022/12/13 00:12:57;;;;;;;10.52;6.28;;;;;;;-3.12;86.92;98427.75;5050301;28;20052;-62
2022/12/13 00:15:42;;;;;;;10.77;6.47;;;;;;;-3.24;87.08;98431.41;5045276;28;20116;-62
2022/12/13 00:18:27;;;;;;;9.15;5.72;;;;;;;-3.16;87.24;98425.28;5049337;28;20064;-64
2022/12/13 00:21:14;;;;;;;11.52;6.28;;;;;;;-3.24;86.34;98433.09;5050219;28;20037;-63
2022/12/13 00:24:00;;;;;;;12.30;6.72;;;;;;;-3.35;86.36;98420.47;5043830;28;20057;-63
2022/12/13 00:26:45;;;;;;;10.77;5.75;;;;;;;-3.23;86.32;98416.84;5039280;28;20117;-63
2022/12/13 00:29:29;;;;;;;9.75;6.05;;;;;;;-3.34;85.75;98423.00;5049097;28;20504;-63
2022/12/13 00:32:15;;;;;;;11.40;6.97;;;;;;;-3.19;86.22;98427.88;5049815;28;20127;-63
2022/12/13 00:34:59;;;;;;;10.40;6.30;;;;;;;-3.16;85.63;98425.28;5077411;28;20045;-63
2022/12/13 00:37:44;;;;;;;9.43;5.97;;;;;;;-3.19;85.88;98423.63;5047084;28;20057;-63
2022/12/13 00:40:28;;;;;;;11.70;5.97;;;;;;;-3.26;86.05;98424.59;5046640;28;20699;-62
2022/12/13 00:43:13;;;;;;;9.60;6.13;;;;;;;-3.25;86.19;98428.84;5061721;28;20060;-64
2022/12/13 00:45:57;;;;;;;10.43;5.60;;;;;;;-3.01;87.47;98434.41;5042707;28;20041;-63
2022/12/13 00:48:43;;;;;;;9.95;6.45;;;;;;;-3.10;86.47;98428.56;5047288;28;20057;-64
2022/12/13 00:51:30;;;;;;;9.48;6.32;;;;;;;-2.97;86.53;98424.06;5047360;28;20045;-62
2022/12/13 00:54:16;;;;;;;9.55;5.78;;;;;;;-3.14;86.70;98429.50;5047336;28;20051;-63
2022/12/13 00:57:00;;;;;;;9.65;6.07;;;;;;;-3.07;85.06;98437.09;5045214;28;20038;-63
2022/12/13 00:59:44;;;;;;;9.95;6.05;;;;;;;-2.78;89.26;98441.69;5047231;28;20342;-62
2022/12/13 01:02:29;;;;;;;10.20;5.68;;;;;;;-2.87;87.13;98442.69;5035322;28;20080;-63
2022/12/13 01:05:14;;;;;;;10.40;6.50;;;;;;;-2.85;89.70;98438.38;5046858;28;20041;-63
2022/12/13 01:07:59;;;;;;;10.85;6.68;;;;;;;-3.02;85.17;98442.97;5047095;28;20503;-67
2022/12/13 01:10:45;;;;;;;10.43;5.90;;;;;;;-3.17;86.37;98441.53;5039258;28;20045;-63
2022/12/13 01:13:30;;;;;;;9.10;5.63;;;;;;;-3.17;88.19;98436.41;5046881;28;20045;-62
2022/12/13 01:16:15;;;;;;;9.75;5.63;;;;;;;-3.18;85.87;98434.72;5049115;28;20518;-66
2022/12/13 01:18:59;;;;;;;11.52;6.15;;;;;;;-3.14;86.39;98433.78;5049697;28;20045;-63
2022/12/13 01:21:44;;;;;;;9.02;5.63;;;;;;;-3.26;85.23;98424.59;5049726;28;20047;-63
2022/12/13 01:24:30;;;;;;;8.80;5.20;;;;;;;-3.16;84.65;98432.97;5048895;28;20067;-64
2022/12/13 01:27:15;;;;;;;7.40;5.10;;;;;;;-3.13;86.10;98438.88;5043745;28;20063;-63
2022/12/13 01:29:59;;;;;;;8.05;5.05;;;;;;;-3.16;83.75;98431.25;5038880;28;20053;-63
2022/12/13 01:32:44;;;;;;;8.77;5.28;;;;;;;-3.25;84.60;98431.41;5047273;28;20052;-64
2022/12/13 01:35:28;;;;;;;12.52;5.20;;;;;;;-3.12;85.90;98438.00;5048846;28;20064;-63
2022/12/13 01:38:13;;;;;;;8.98;5.63;;;;;;;-3.04;87.31;98440.44;5039735;28;20043;-62
2022/12/13 01:40:58;;;;;;;9.90;6.13;;;;;;;-2.89;88.23;98439.28;5049275;28;20052;-63
2022/12/13 01:43:42;;;;;;;8.43;5.78;;;;;;;-2.87;87.99;98441.81;5049524;28;20037;-62
2022/12/13 01:46:31;;;;;;;9.05;5.10;;;;;;;-2.84;89.54;98452.06;5048685;28;20116;-63
2022/12/13 01:49:17;;;;;;;9.95;5.88;;;;;;;-2.94;87.47;98443.69;5041930;28;20063;-62
2022/12/13 01:52:05;;;;;;;8.57;5.13;;;;;;;-2.81;87.47;98443.44;5048810;28;20048;-62
2022/12/13 01:54:55;;;;;;;8.70;5.93;;;;;;;-2.95;86.59;98447.09;5051824;28;20116;-64
2022/12/13 01:57:43;;;;;;;8.43;5.15;;;;;;;-2.96;87.10;98437.72;5051598;28;20090;-62
2022/12/13 02:00:28;;;;;;;8.27;5.70;;;;;;;-2.99;87.24;98442.91;5051536;28;20055;-62
2022/12/13 02:03:15;;;;;;;11.05;5.95;;;;;;;-2.93;87.33;98445.38;5051441;28;20041;-63
2022/12/13 02:06:32;;;;;;;9.25;6.00;;;;;;;-3.12;86.92;98439.75;5052069;28;20127;-62
2022/12/13 02:09:17;;;;;;;9.85;5.78;;;;;;;-3.11;87.54;98443.97;5074832;28;20092;-62
2022/12/13 02:12:03;;;;;;;7.68;5.72;;;;;;;-2.99;88.77;98442.91;5037213;28;20037;-62
2022/12/13 02:14:48;;;;;;;8.60;5.80;;;;;;;-2.94;88.73;98447.97;5051801;28;20049;-62
2022/12/13 02:17:41;;;;;;;8.93;5.57;;;;;;;-3.05;87.86;98449.00;5051468;28;20446;-62
2022/12/13 02:20:28;;;;;;;9.05;5.32;;;;;;;-3.10;87.86;98441.38;5050835;28;20037;-62
2022/12/13 02:23:55;;;;;;;9.52;6.18;;;;;;;-2.95;89.84;98446.28;5050126;28;20098;-65
2022/12/13 02:26:57;;;;;;;7.53;5.03;;;;;;;-2.93;90.06;98447.94;5046901;28;20439;-64
2022/12/13 02:30:29;;;;;;;9.93;5.53;;;;;;;-2.87;90.75;98457.22;5052310;28;20405;-64
2022/12/13 02:33:31;;;;;;;9.27;6.13;;;;;;;-2.70;91.03;98449.22;5029005;28;20053;-65
2022/12/13 02:36:21;;;;;;;8.05;5.60;;;;;;;-2.66;88.54;98448.28;5035784;28;20059;-64
2022/12/13 02:39:24;;;;;;;9.40;5.63;;;;;;;-2.79;86.84;98449.41;5049960;28;20056;-64
2022/12/13 02:42:22;;;;;;;9.20;5.35;;;;;;;-2.66;87.01;98442.31;5049603;28;20132;-64
2022/12/13 02:45:19;;;;;;;8.45;5.60;;;;;;;-2.61;88.24;98456.72;5049036;28;20491;-64
2022/12/13 02:48:06;;;;;;;10.73;6.55;;;;;;;-2.57;88.29;98451.53;5049416;28;20474;-65
2022/12/13 02:50:52;;;;;;;9.10;5.80;;;;;;;-2.67;87.30;98453.44;5049592;28;20060;-66
2022/12/13 02:53:40;;;;;;;9.15;6.50;;;;;;;-3.00;87.08;98451.47;5049837;28;20049;-64
2022/12/13 02:56:28;;;;;;;10.20;6.55;;;;;;;-3.06;87.45;98446.47;5026813;28;20600;-65
2022/12/13 02:59:14;;;;;;;9.30;5.90;;;;;;;-2.92;88.36;98446.22;5060327;28;20092;-64
2022/12/13 03:01:58;;;;;;;10.65;6.65;;;;;;;-3.22;87.18;98446.75;5048502;28;20183;-64
2022/12/13 03:09:06;;;;;;;8.93;5.60;;;;;;;-3.21;89.68;98443.28;4937820;29;20055;-63
2022/12/13 03:15:50;;;;;;;10.50;6.13;;;;;;;-3.15;89.58;98448.31;4940565;29;20043;-63
2022/12/13 03:18:35;;;;;;;9.98;5.93;;;;;;;-3.10;88.91;98445.69;4950024;29;20093;-64
2022/12/13 03:21:19;;;;;;;9.23;6.10;;;;;;;-3.13;89.04;98448.28;4950899;29;20051;-63
2022/12/13 03:24:04;;;;;;;9.20;6.05;;;;;;;-3.11;87.37;98449.09;4931965;29;20055;-64
2022/12/13 03:26:50;;;;;;;9.80;5.90;;;;;;;-3.15;88.76;98450.88;4950883;29;20090;-63
2022/12/13 03:29:35;;;;;;;9.38;6.47;;;;;;;-3.25;88.40;98450.19;4950811;29;20059;-64
2022/12/13 03:32:19;;;;;;;9.60;5.93;;;;;;;-3.22;88.06;98446.75;4950767;29;20513;-63
2022/12/13 03:35:05;;;;;;;8.90;6.30;;;;;;;-3.15;88.59;98439.78;4951113;29;20126;-63
2022/12/13 03:37:50;;;;;;;9.07;5.93;;;;;;;-3.38;88.43;98443.59;4941446;29;20069;-63
2022/12/13 03:40:35;;;;;;;11.02;6.40;;;;;;;-3.42;89.28;98440.22;4949996;29;20070;-63
2022/12/13 03:43:19;;;;;;;9.50;5.75;;;;;;;-3.69;88.56;98439.81;4989834;28;20506;-64
2022/12/13 03:46:04;;;;;;;12.15;7.13;;;;;;;-3.86;88.44;98445.19;5047694;28;20116;-64
2022/12/13 03:48:49;;;;;;;8.95;5.82;;;;;;;-3.86;89.17;98442.63;5073942;28;20045;-63
2022/12/13 03:51:34;;;;;;;7.95;5.60;;;;;;;-3.79;88.19;98449.34;5048966;28;20052;-62
2022/12/13 03:54:19;;;;;;;10.63;5.85;;;;;;;-3.61;89.00;98452.50;5050143;28;20164;-64
2022/12/13 03:57:03;;;;;;;10.77;6.38;;;;;;;-3.53;90.74;98452.38;5049886;28;20581;-65
2022/12/13 03:59:48;;;;;;;9.45;6.30;;;;;;;-3.49;92.02;98446.31;5048381;28;20056;-64
2022/12/13 04:02:33;;;;;;;9.35;6.07;;;;;;;-3.58;90.75;98452.44;5049186;28;20763;-65
2022/12/13 04:05:18;;;;;;;11.40;6.07;;;;;;;-3.55;92.85;98452.41;5044091;28;20120;-65
2022/12/13 04:08:03;;;;;;;10.88;5.95;;;;;;;-3.63;92.99;98454.22;5046622;28;20068;-65
2022/12/13 04:10:47;;;;;;;9.98;6.20;;;;;;;-3.55;92.86;98449.84;5048806;28;20404;-64
2022/12/13 04:13:32;;;;;;;8.50;5.65;;;;;;;-3.58;90.13;98444.75;5050014;28;20132;-64
2022/12/13 04:16:17;;;;;;;10.23;6.65;;;;;;;-3.51;90.38;98455.75;5050383;28;20048;-65
2022/12/13 04:19:01;;;;;;;10.68;7.10;;;;;;;-3.48;91.31;98459.09;5049890;28;20429;-66
2022/12/13 04:21:46;;;;;;;9.30;5.80;;;;;;;-3.63;90.43;98452.53;5049695;28;20054;-66
2022/12/13 04:24:30;;;;;;;11.00;6.82;;;;;;;-3.75;89.51;98452.69;5049032;28;20052;-65
2022/12/13 04:27:15;;;;;;;10.32;6.32;;;;;;;-3.88;88.92;98446.91;5048549;28;20541;-65
2022/12/13 04:30:00;;;;;;;10.60;6.47;;;;;;;-3.92;89.24;98441.00;5049963;28;20554;-66
2022/12/13 04:32:44;;;;;;;12.43;7.07;;;;;;;-3.81;90.15;98437.44;5049832;28;20147;-65
2022/12/13 04:35:29;;;;;;;12.48;6.93;;;;;;;-3.72;89.23;98435.56;5043348;28;20042;-65
2022/12/13 04:38:14;;;;;;;12.23;6.43;;;;;;;-3.84;90.88;98433.22;5044919;28;20525;-65
2022/12/13 04:41:07;;;;;;;10.20;6.43;;;;;;;-3.79;90.09;98430.56;5048963;28;20055;-66
2022/12/13 04:43:52;;;;;;;10.90;6.45;;;;;;;-3.71;90.79;98427.03;5050227;28;20053;-66
2022/12/13 04:46:37;;;;;;;10.07;6.45;;;;;;;-3.73;90.67;98431.34;5049514;28;20043;-66
2022/12/13 04:49:22;;;;;;;11.10;7.07;;;;;;;-3.91;88.89;98426.47;5035512;28;20099;-68
2022/12/13 04:52:07;;;;;;;11.85;6.63;;;;;;;-4.02;88.60;98424.94;5041172;28;20047;-65
2022/12/13 04:54:52;;;;;;;10.13;6.22;;;;;;;-4.09;87.51;98428.44;5047488;28;20140;-69
2022/12/13 04:57:39;;;;;;;10.30;6.00;;;;;;;-3.90;90.25;98431.56;5049527;28;20094;-65
2022/12/13 05:00:23;;;;;;;9.02;6.25;;;;;;;-3.98;87.98;98428.28;5034515;28;20563;-65
2022/12/13 05:03:08;;;;;;;9.82;6.30;;;;;;;-3.93;88.48;98430.78;5076123;28;20053;-66
2022/12/13 05:05:53;;;;;;;10.68;5.88;;;;;;;-4.02;88.33;98429.19;5049617;28;20794;-67
2022/12/13 05:08:38;;;;;;;9.77;5.80;;;;;;;-4.03;88.78;98422.41;5049395;28;20151;-66
2022/12/13 05:11:27;;;;;;;11.43;6.28;;;;;;;-4.01;89.33;98425.75;5049672;28;20037;-66
2022/12/13 05:14:17;;;;;;;;;;;;;;;-4.05;90.21;98426.69;5049124;28;20053;-67
2022/12/13 05:17:01;;;;;;;9.25;5.82;;;;;;;-4.04;89.58;98424.09;5049059;28;19932;-66
2022/12/13 05:19:46;;;;;;;12.30;6.43;;;;;;;-3.98;90.57;98423.16;5049263;28;20165;-64
2022/12/13 05:22:30;;;;;;;10.00;6.47;;;;;;;-3.90;91.04;98416.22;5049055;28;20097;-64
2022/12/13 05:25:16;;;;;;;9.70;6.47;;;;;;;-3.99;90.61;98424.03;5049998;28;20120;-65
2022/12/13 05:28:00;;;;;;;11.60;6.53;;;;;;;-3.94;92.17;98417.13;5053326;28;20041;-66
2022/12/13 05:30:46;;;;;;;12.25;6.78;;;;;;;-4.00;89.76;98420.63;5038130;28;20546;-65
2022/12/13 05:33:31;;;;;;;10.90;6.45;;;;;;;-4.06;89.22;98420.72;5052600;28;20040;-65
2022/12/13 05:36:16;;;;;;;13.80;7.75;;;;;;;-4.02;89.55;98416.41;5047549;28;20053;-64
2022/12/13 05:39:01;;;;;;;10.68;6.95;;;;;;;-4.00;89.17;98418.06;5046599;28;20087;-67
2022/12/13 05:41:46;;;;;;;9.60;6.35;;;;;;;-3.85;89.91;98413.56;5048672;28;20111;-65
2022/12/13 05:44:31;;;;;;;12.77;7.30;;;;;;;-3.96;88.66;98408.63;5052112;28;20385;-65
2022/12/13 05:47:15;;;;;;;6.32;3.55;;;;;;;-3.18;91.81;98415.03;5069753;28;20045;-65
2022/12/13 05:50:00;;;;;;;7.45;3.53;;;;;;;-2.73;91.28;98415.94;5052363;28;20106;-68
2022/12/13 05:52:45;;;;;;;20.08;6.47;;;;;;;-2.94;90.11;98414.63;5051692;28;20037;-67
2022/12/13 05:55:30;;;;;;;11.13;5.30;;;;;;;-3.11;90.25;98414.06;5046713;28;20179;-68
2022/12/13 05:58:15;;;;;;;10.60;5.13;;;;;;;-2.98;94.80;98426.66;5056965;28;20047;-67
2022/12/13 06:01:05;;;;;;;9.57;5.53;;;;;;;-2.94;95.88;98418.03;5051240;28;20041;-67
2022/12/13 06:03:50;;;;;;;14.38;5.97;;;;;;;-2.87;97.28;98426.44;5050524;28;20045;-70
2022/12/13 06:06:36;;;;;;;11.45;6.30;;;;;;;-2.96;96.20;98422.34;5048222;28;20500;-66
2022/12/13 06:09:21;;;;;;;10.55;6.10;;;;;;;-3.47;91.09;98429.22;5035651;28;20132;-67
2022/12/13 06:12:06;;;;;;;9.68;5.60;;;;;;;-3.53;90.68;98434.44;5049432;28;20044;-67
2022/12/13 06:14:51;;;;;;;11.65;6.05;;;;;;;-3.50;90.69;98435.25;5049628;28;20469;-65
2022/12/13 06:17:36;;;;;;;11.70;6.68;;;;;;;-3.41;92.37;98436.78;5046099;28;20037;-66
2022/12/13 06:20:21;;;;;;;10.20;6.30;;;;;;;-3.57;93.39;98441.31;5046136;28;20099;-69
2022/12/13 06:23:06;;;;;;;11.57;6.10;;;;;;;-3.84;93.21;98436.63;5051371;28;20106;-67
2022/12/13 06:25:53;;;;;;;11.02;7.43;;;;;;;-4.11;93.35;98441.25;5051559;28;20049;-67
2022/12/13 06:28:37;;;;;;;12.27;7.75;;;;;;;-4.21;93.51;98448.22;5049809;28;20494;-63
2022/12/13 06:31:22;;;;;;;12.55;7.85;;;;;;;-4.28;92.29;98440.66;5044643;28;20116;-68
2022/12/13 06:34:06;;;;;;;10.55;6.72;;;;;;;-4.07;93.80;98442.06;5050234;28;20404;-65
2022/12/13 06:36:51;;;;;;;11.35;7.57;;;;;;;-3.80;92.78;98446.81;5043522;28;20045;-66
2022/12/13 06:39:36;;;;;;;12.25;7.55;;;;;;;-3.59;90.52;98445.66;5047297;28;20511;-68
2022/12/13 06:42:21;;;;;;;12.75;6.75;;;;;;;-3.02;87.97;98448.09;5048311;28;20045;-67
2022/12/13 06:45:06;;;;;;;11.40;6.05;;;;;;;-2.55;83.97;98453.22;5051043;28;20051;-67
2022/12/13 06:47:51;;;;;;;11.80;7.32;;;;;;;-1.79;83.37;98448.16;5051415;28;20064;-68
2022/12/13 06:50:35;;;;;;;13.90;6.35;;;;;;;-1.31;88.50;98441.06;5042049;28;20055;-71
2022/12/13 06:53:20;;;;;;;12.00;6.32;;;;;;;-0.53;85.77;98449.28;5046071;28;20049;-70
2022/12/13 06:56:08;;;;;;;11.73;6.55;;;;;;;-0.13;81.09;98452.44;5048057;28;20510;-66
2022/12/13 06:58:53;;;;;;;11.27;6.50;;;;;;;0.00;80.69;98457.25;5044425;28;20045;-66
2022/12/13 07:01:38;;;;;;;10.38;5.88;;;;;;;-0.35;80.56;98448.78;5044639;28;20052;-68
2022/12/13 07:04:22;;;;;;;12.70;6.78;;;;;;;-0.58;79.62;98463.16;5047995;28;20075;-68
2022/12/13 07:07:08;;;;;;;14.00;6.25;;;;;;;-0.06;79.01;98457.41;5048690;28;20036;-67
2022/12/13 07:09:53;;;;;;;9.73;6.55;;;;;;;0.24;76.41;98452.22;5040307;28;20606;-68
2022/12/13 07:12:37;;;;;;;9.57;5.75;;;;;;;0.49;78.73;98452.25;5047326;28;20400;-66
2022/12/13 07:15:22;;;;;;;10.70;6.10;;;;;;;0.65;75.93;98462.09;5031578;28;20043;-66
2022/12/13 07:18:07;;;;;;;10.95;6.50;;;;;;;1.05;74.68;98459.91;5045585;28;20047;-64
2022/12/13 07:20:52;;;;;;;10.60;6.25;;;;;;;1.28;74.39;98465.16;5051594;28;20395;-65
2022/12/13 07:23:37;;;;;;;9.82;5.95;;;;;;;1.41;73.96;98468.16;5049144;28;20049;-65
2022/12/13 07:26:23;;;;;;;12.43;8.40;;;;;;;1.70;71.33;98463.66;5046468;28;20041;-65
2022/12/13 07:29:07;;;;;;;46.20;25.25;;;;;;;1.87;68.56;98462.19;5042311;28;20045;-69
2022/12/13 07:31:52;;;;;;;44.15;23.35;;;;;;;1.60;66.63;98471.75;5045684;28;20041;-69
2022/12/13 07:34:37;;;;;;;26.90;15.88;;;;;;;2.03;69.14;98468.47;5051226;28;20106;-69
2022/12/13 07:37:23;;;;;;;39.95;21.58;;;;;;;2.30;63.34;98473.47;5047640;28;20033;-68
2022/12/13 07:40:09;;;;;;;24.48;14.80;;;;;;;2.49;64.47;98469.31;5052544;28;20045;-68
2022/12/13 07:42:55;;;;;;;25.80;16.73;;;;;;;2.51;63.92;98467.50;5049906;28;20037;-67
2022/12/13 07:45:42;;;;;;;20.58;13.25;;;;;;;2.95;69.27;98471.78;5041204;28;20501;-68
2022/12/13 07:48:27;;;;;;;21.15;12.57;;;;;;;3.44;67.47;98462.81;5050371;28;20457;-65
2022/12/13 07:51:12;;;;;;;17.17;10.23;;;;;;;3.81;67.78;98468.09;5050232;28;20040;-67
2022/12/13 07:53:57;;;;;;;16.92;9.73;;;;;;;4.18;65.11;98463.78;5031512;28;20042;-66
2022/12/13 07:56:43;;;;;;;15.40;9.73;;;;;;;3.68;60.49;98470.38;5050101;28;20049;-68
2022/12/13 07:59:28;;;;;;;16.02;9.77;;;;;;;4.17;61.09;98469.03;5043502;28;20655;-67
2022/12/13 08:02:13;;;;;;;16.20;9.70;;;;;;;4.71;59.10;98465.63;5045869;28;20763;-67
2022/12/13 08:04:58;;;;;;;15.35;9.48;;;;;;;4.28;59.03;98463.34;5049554;28;20068;-68
2022/12/13 08:07:42;;;;;;;15.80;9.25;;;;;;;3.76;56.69;98475.22;5044686;28;20391;-68
2022/12/13 08:10:27;;;;;;;16.63;9.73;;;;;;;4.20;58.50;98468.91;5048322;28;20377;-68
2022/12/13 08:13:12;;;;;;;18.05;9.93;;;;;;;5.20;66.79;98473.63;5048553;28;20091;-67
2022/12/13 08:15:59;;;;;;;20.15;11.18;;;;;;;5.67;64.06;98466.88;5048517;28;20041;-67
2022/12/13 08:18:46;;;;;;;16.77;10.77;;;;;;;5.96;58.42;98461.88;5046272;28;20037;-68
2022/12/13 08:21:36;;;;;;;19.38;9.43;;;;;;;5.64;59.08;98472.25;5043700;28;20085;-69
2022/12/13 08:24:20;;;;;;;15.63;9.40;;;;;;;5.93;59.16;98469.84;5047706;28;20045;-65
2022/12/13 08:27:05;;;;;;;16.00;9.02;;;;;;;6.09;52.90;98474.25;5046320;28;20487;-64
2022/12/13 08:29:50;;;;;;;20.52;9.98;;;;;;;5.92;56.59;98481.16;5034410;28;20049;-67
2022/12/13 08:32:35;;;;;;;16.38;9.43;;;;;;;6.74;56.18;98472.41;5039570;28;20060;-64
2022/12/13 08:35:19;;;;;;;14.55;9.68;;;;;;;7.01;54.66;98479.53;5045913;28;20045;-71
2022/12/13 08:38:04;;;;;;;13.57;7.82;;;;;;;7.16;59.04;98483.00;5047602;28;20049;-69
2022/12/13 08:40:49;;;;;;;13.07;7.75;;;;;;;7.61;58.39;98477.72;5045897;28;20045;-69
2022/12/13 08:43:34;;;;;;;12.13;7.70;;;;;;;7.66;54.82;98487.03;5045228;28;20168;-68
2022/12/13 08:46:19;;;;;;;11.55;6.68;;;;;;;7.56;55.41;98478.94;5045599;28;20055;-70
2022/12/13 08:49:04;;;;;;;10.23;6.90;;;;;;;7.68;53.50;98480.81;5043980;28;20149;-72
2022/12/13 08:51:48;;;;;;;11.05;6.72;;;;;;;7.83;54.01;98468.59;5044461;28;20437;-70
2022/12/13 08:54:34;;;;;;;13.43;8.02;;;;;;;8.41;53.15;98465.00;5046010;28;20064;-71
2022/12/13 08:57:19;;;;;;;11.48;6.45;;;;;;;8.35;48.54;98468.84;5047301;28;20514;-70
2022/12/13 09:00:05;;;;;;;12.82;6.65;;;;;;;8.44;48.91;98461.34;5045355;28;20064;-68
2022/12/13 09:02:50;;;;;;;9.85;5.90;;;;;;;8.13;48.64;98466.75;5046934;28;20408;-70
2022/12/13 09:05:35;;;;;;;9.43;5.75;;;;;;;9.14;52.27;98466.44;5047402;28;20037;-70
2022/12/13 09:08:19;;;;;;;8.25;4.97;;;;;;;9.73;50.91;98465.88;5044186;28;20053;-70
2022/12/13 09:11:06;;;;;;;8.10;5.03;;;;;;;9.55;48.59;98467.16;5044651;28;20053;-68
2022/12/13 09:13:51;;;;;;;10.63;5.45;;;;;;;9.41;46.75;98465.50;5046838;28;20399;-67
2022/12/13 09:16:36;;;;;;;8.13;4.82;;;;;;;9.06;48.03;98461.72;5045600;28;20120;-68
2022/12/13 09:19:21;;;;;;;7.05;4.45;;;;;;;9.26;49.30;98462.16;5045857;28;20467;-68
2022/12/13 09:22:06;;;;;;;7.00;4.45;;;;;;;9.23;42.50;98455.38;5046898;28;20037;-67
2022/12/13 09:24:50;;;;;;;7.68;4.40;;;;;;;9.59;45.73;98459.03;5048761;28;20040;-70
2022/12/13 09:27:36;;;;;;;6.15;3.53;;;;;;;9.47;48.11;98462.47;5046780;28;20047;-71
2022/12/13 09:30:20;;;;;;;6.47;4.18;;;;;;;9.85;42.29;98460.75;5044770;28;20549;-69
2022/12/13 09:33:08;;;;;;;5.15;3.28;;;;;;;10.08;53.46;98453.03;5046601;28;20037;-69
2022/12/13 09:35:53;;;;;;;6.57;3.22;;;;;;;10.23;44.73;98451.94;5045929;28;20460;-67
2022/12/13 09:38:39;;;;;;;4.72;2.80;;;;;;;10.64;45.84;98454.28;5040966;28;20041;-69
2022/12/13 09:41:30;;;;;;;6.68;4.38;;;;;;;10.18;42.96;98450.59;5043712;28;20048;-70
2022/12/13 09:44:28;;;;;;;5.43;3.80;;;;;;;10.04;43.74;98443.72;5048856;28;20074;-71
2022/12/13 09:47:30;;;;;;;5.03;3.03;;;;;;;10.87;45.64;98441.25;5045543;28;20053;-67
2022/12/13 09:50:18;;;;;;;;;;;;;;;10.92;43.89;98436.50;5041190;28;20033;-66
2022/12/13 09:53:06;;;;;;;4.88;3.33;;;;;;;10.56;43.61;98440.94;5043081;28;20645;-66
2022/12/13 09:55:51;;;;;;;5.65;3.60;;;;;;;10.83;42.03;98439.81;5044513;28;20037;-68
2022/12/13 09:58:36;;;;;;;5.25;3.22;;;;;;;10.67;44.51;98433.13;5049255;28;20419;-69
2022/12/13 10:01:22;;;;;;;5.50;3.45;;;;;;;10.92;40.41;98439.13;5049000;28;20048;-67
2022/12/13 10:04:10;;;;;;;3.92;2.40;;;;;;;11.82;43.65;98435.81;5048158;28;20455;-68
2022/12/13 10:06:58;;;;;;;3.65;2.17;;;;;;;12.01;41.42;98431.75;5048860;28;20081;-68
2022/12/13 10:09:43;;;;;;;4.32;3.05;;;;;;;11.42;43.44;98434.56;5033716;28;20055;-68
2022/12/13 10:12:28;;;;;;;5.57;3.70;;;;;;;11.15;38.91;98427.84;5040400;28;20108;-68
2022/12/13 10:15:17;;;;;;;5.82;3.67;;;;;;;11.27;39.54;98432.16;5048799;28;20052;-68
2022/12/13 10:18:03;;;;;;;5.57;3.03;;;;;;;11.20;49.51;98423.06;5051895;28;20053;-76
2022/12/13 10:20:48;;;;;;;7.20;4.35;;;;;;;12.39;36.38;98414.72;5058646;28;20132;-77
2022/12/13 10:23:33;;;;;;;8.32;4.60;;;;;;;11.51;34.40;98422.50;5051603;28;20104;-75
2022/12/13 10:26:18;;;;;;;7.78;4.03;;;;;;;13.06;33.81;98422.38;5052538;28;20380;-77
2022/12/13 10:29:05;;;;;;;6.38;3.90;;;;;;;11.92;46.39;98423.66;5056404;28;20048;-76
2022/12/13 10:31:51;;;;;;;5.47;3.55;;;;;;;10.66;36.35;98420.09;5046517;28;20124;-74
2022/12/13 10:34:36;;;;;;;6.45;3.97;;;;;;;11.68;34.32;98421.19;5030977;28;20068;-75
2022/12/13 10:37:33;;;;;;;6.70;3.42;;;;;;;11.37;34.23;98424.41;5048831;28;20037;-76
2022/12/13 10:40:30;;;;;;;6.30;3.53;;;;;;;11.16;34.50;98417.22;5050383;28;20044;-79
2022/12/13 10:43:17;;;;;;;4.88;3.33;;;;;;;11.52;34.04;98418.94;5049950;28;20052;-73
2022/12/13 10:46:02;;;;;;;6.70;3.65;;;;;;;10.58;34.21;98403.19;5051735;28;20037;-80
2022/12/13 10:48:49;;;;;;;5.32;2.90;;;;;;;11.26;34.47;98412.13;5051789;28;20076;-79
2022/12/13 10:51:39;;;;;;;5.13;2.58;;;;;;;10.86;34.71;98413.38;5050228;28;20041;-75
2022/12/13 10:54:30;;;;;;;3.58;2.78;;;;;;;11.01;33.81;98394.81;5047530;28;20075;-75
2022/12/13 10:57:15;;;;;;;;;;;;;;;10.61;34.60;98398.69;5050003;28;20128;-75
2022/12/13 11:00:00;;;;;;;4.53;2.40;;;;;;;10.82;34.10;98409.34;5049235;28;19925;-76
2022/12/13 11:02:53;;;;;;;4.60;2.50;;;;;;;10.05;34.79;98401.75;5048326;28;20040;-73
2022/12/13 11:05:39;;;;;;;3.72;2.38;;;;;;;10.84;34.31;98386.44;5050094;28;20048;-70
2022/12/13 11:08:26;;;;;;;4.07;2.45;;;;;;;9.45;35.10;98396.38;5050774;28;20052;-71
2022/12/13 11:11:14;;;;;;;3.88;2.33;;;;;;;10.02;35.42;98388.06;5049714;28;20044;-70
2022/12/13 11:14:00;;;;;;;5.00;2.80;;;;;;;10.75;34.50;98389.78;5047319;28;20716;-70
2022/12/13 11:16:53;;;;;;;5.63;2.78;;;;;;;10.57;34.05;98387.59;5047739;28;20656;-66
2022/12/13 11:19:43;;;;;;;5.43;2.67;;;;;;;9.67;34.88;98379.16;5049778;28;20043;-72
2022/12/13 11:22:48;;;;;;;4.13;2.25;;;;;;;9.85;35.12;98377.03;5053869;28;20056;-70
2022/12/13 11:25:43;;;;;;;3.83;2.47;;;;;;;8.89;36.48;98382.72;5038167;28;20098;-70
2022/12/13 11:28:45;;;;;;;3.83;2.33;;;;;;;9.42;36.44;98375.66;5049933;28;20514;-66
2022/12/13 11:31:51;;;;;;;3.50;2.20;;;;;;;9.24;35.82;98376.84;5050193;28;20061;-69
2022/12/13 11:35:21;;;;;;;3.38;2.10;;;;;;;9.99;35.58;98370.78;5044895;28;20056;-70
2022/12/13 11:38:29;;;;;;;4.85;2.40;;;;;;;8.74;36.79;98372.38;5049963;28;20049;-63
2022/12/13 11:41:30;;;;;;;3.58;2.35;;;;;;;7.59;39.01;98375.31;5049051;28;20090;-69
2022/12/13 11:44:21;;;;;;;3.33;2.10;;;;;;;7.95;38.64;98372.25;5050071;28;20131;-71
2022/12/13 11:47:14;;;;;;;2.92;1.92;;;;;;;9.53;40.81;98367.88;5049983;28;20052;-74
2022/12/13 11:50:02;;;;;;;4.55;2.28;;;;;;;9.10;36.77;98367.34;5049411;28;20124;-78
2022/12/13 11:52:53;;;;;;;3.45;1.95;;;;;;;7.37;39.15;98376.66;5049259;28;20102;-76
2022/12/13 11:55:43;;;;;;;5.00;2.63;;;;;;;7.30;39.49;98367.53;5049814;28;20041;-68
2022/12/13 11:58:38;;;;;;;5.13;2.97;;;;;;;7.13;41.05;98369.38;5033125;28;20045;-74
2022/12/13 12:01:31;;;;;;;5.03;2.63;;;;;;;7.84;38.30;98360.72;5048701;28;20061;-70
2022/12/13 12:04:30;;;;;;;3.90;2.63;;;;;;;7.68;39.11;98366.09;5050171;28;20353;-70
2022/12/13 12:07:18;;;;;;;4.43;2.70;;;;;;;7.17;40.45;98369.19;5047896;28;20041;-67
2022/12/13 12:10:51;;;;;;;4.00;2.75;;;;;;;6.91;40.57;98369.84;5048869;28;20060;-67
2022/12/13 12:13:44;;;;;;;6.25;2.95;;;;;;;5.43;43.64;98358.13;4971612;28;20054;-68
2022/12/13 12:16:56;;;;;;;5.05;2.63;;;;;;;5.32;44.21;98350.06;4986827;28;20591;-71
2022/12/13 12:19:45;;;;;;;4.90;2.60;;;;;;;6.07;42.97;98361.66;4986433;28;20394;-71
2022/12/13 12:22:54;;;;;;;5.88;3.47;;;;;;;5.73;43.42;98356.56;4967390;28;20066;-70
2022/12/13 12:26:07;;;;;;;5.63;3.67;;;;;;;5.80;42.96;98342.28;4987501;28;20594;-62
2022/12/13 12:29:19;;;;;;;4.35;2.88;;;;;;;5.43;44.08;98347.75;4996901;28;20038;-74
2022/12/13 12:32:27;;;;;;;5.70;3.30;;;;;;;6.80;40.39;98348.81;4990406;28;20084;-66
2022/12/13 12:35:21;;;;;;;5.93;3.42;;;;;;;6.18;42.21;98345.44;4985749;28;20062;-65
2022/12/13 12:38:17;;;;;;;5.55;3.10;;;;;;;5.99;41.61;98342.06;4971966;28;20118;-68
2022/12/13 12:41:16;;;;;;;6.93;3.53;;;;;;;5.47;42.29;98343.22;4987028;28;20050;-67
2022/12/13 12:44:18;;;;;;;5.90;3.63;;;;;;;5.33;42.82;98350.00;4983798;28;20060;-67
2022/12/13 12:47:41;;;;;;;6.03;3.30;;;;;;;6.50;41.76;98345.31;4978600;28;20615;-65
2022/12/13 12:50:46;;;;;;;4.53;2.85;;;;;;;7.93;39.29;98341.03;5025134;28;20045;-67
2022/12/13 12:53:44;;;;;;;5.25;3.10;;;;;;;7.20;39.24;98343.78;5037434;28;20071;-67
2022/12/13 12:56:48;;;;;;;5.07;2.58;;;;;;;7.34;38.88;98347.34;5027516;28;20115;-68
2022/12/13 12:59:45;;;;;;;5.88;3.20;;;;;;;7.04;39.60;98351.72;5047098;28;20061;-67
2022/12/13 13:02:34;;;;;;;5.22;3.13;;;;;;;7.31;38.82;98344.91;5045458;28;20053;-66
2022/12/13 13:05:29;;;;;;;6.18;3.13;;;;;;;7.78;37.99;98345.47;5031910;28;20078;-64
2022/12/13 13:08:20;;;;;;;5.40;3.13;;;;;;;7.54;38.86;98340.03;5045924;28;20113;-65
2022/12/13 13:11:06;;;;;;;4.72;3.00;;;;;;;8.02;38.14;98339.59;5048866;28;20045;-69
2022/12/13 13:14:26;;;;;;;6.35;2.92;;;;;;;8.60;37.68;98328.88;5047945;28;20065;-67
2022/12/13 13:17:16;;;;;;;4.88;3.17;;;;;;;7.87;38.76;98338.81;5048680;28;20451;-64
2022/12/13 13:20:24;;;;;;;4.95;3.00;;;;;;;7.14;39.55;98347.63;5047794;28;20131;-65
2022/12/13 13:23:14;;;;;;;5.47;3.30;;;;;;;6.32;42.16;98347.22;5057697;28;20116;-65